sensor_id;sensor_type;location;lat;lon;timestamp;P1;durP1;ratioP1;P2;durP2;ratioP2
63567;SDS011;49715;42.386;20.434;2023-02-23T00:01:35;76.55;;;44.70;;
63567;SDS011;49715;42.386;20.434;2023-02-23T00:06:29;72.28;;;43.30;;
63567;SDS011;49715;42.386;20.434;2023-02-23T00:08:58;78.88;;;41.60;;
63567;SDS011;49715;42.386;20.434;2023-02-23T00:11:26;84.57;;;43.47;;
63567;SDS011;49715;42.386;20.434;2023-02-23T00:16:22;72.97;;;41.60;;
63567;SDS011;49715;42.386;20.434;2023-02-23T00:18:53;81.40;;;45.28;;
63567;SDS011;49715;42.386;20.434;2023-02-23T00:21:22;71.93;;;44.42;;
63567;SDS011;49715;42.386;20.434;2023-02-23T00:23:51;70.95;;;43.17;;
63567;SDS011;49715;42.386;20.434;2023-02-23T00:26:23;75.45;;;43.15;;
63567;SDS011;49715;42.386;20.434;2023-02-23T00:28:54;73.18;;;42.90;;
63567;SDS011;49715;42.386;20.434;2023-02-23T00:31:21;60.58;;;35.25;;
63567;SDS011;49715;42.386;20.434;2023-02-23T00:33:51;59.47;;;34.83;;
63567;SDS011;49715;42.386;20.434;2023-02-23T00:36:26;56.08;;;33.10;;
63567;SDS011;49715;42.386;20.434;2023-02-23T00:38:59;65.40;;;32.95;;
63567;SDS011;49715;42.386;20.434;2023-02-23T00:41:28;61.67;;;34.50;;
63567;SDS011;49715;42.386;20.434;2023-02-23T00:43:55;62.50;;;34.45;;
63567;SDS011;49715;42.386;20.434;2023-02-23T00:46:28;81.13;;;40.50;;
63567;SDS011;49715;42.386;20.434;2023-02-23T00:48:56;68.63;;;36.05;;
63567;SDS011;49715;42.386;20.434;2023-02-23T00:51:24;70.93;;;40.05;;
63567;SDS011;49715;42.386;20.434;2023-02-23T00:53:53;68.25;;;41.63;;
63567;SDS011;49715;42.386;20.434;2023-02-23T00:56:20;65.95;;;41.25;;
63567;SDS011;49715;42.386;20.434;2023-02-23T00:58:48;67.50;;;39.70;;
63567;SDS011;49715;42.386;20.434;2023-02-23T01:01:15;66.75;;;39.03;;
63567;SDS011;49715;42.386;20.434;2023-02-23T01:03:42;63.42;;;37.90;;
63567;SDS011;49715;42.386;20.434;2023-02-23T01:06:10;57.08;;;35.70;;
63567;SDS011;49715;42.386;20.434;2023-02-23T01:08:41;61.10;;;32.40;;
63567;SDS011;49715;42.386;20.434;2023-02-23T01:11:15;55.63;;;30.98;;
63567;SDS011;49715;42.386;20.434;2023-02-23T01:13:48;53.85;;;29.77;;
63567;SDS011;49715;42.386;20.434;2023-02-23T01:16:18;51.85;;;29.13;;
63567;SDS011;49715;42.386;20.434;2023-02-23T01:18:47;49.28;;;27.40;;
63567;SDS011;49715;42.386;20.434;2023-02-23T01:21:18;44.75;;;26.38;;
63567;SDS011;49715;42.386;20.434;2023-02-23T01:23:45;47.17;;;26.25;;
63567;SDS011;49715;42.386;20.434;2023-02-23T01:26:20;37.67;;;26.00;;
63567;SDS011;49715;42.386;20.434;2023-02-23T01:28:54;42.05;;;25.45;;
63567;SDS011;49715;42.386;20.434;2023-02-23T01:31:23;42.78;;;26.92;;
63567;SDS011;49715;42.386;20.434;2023-02-23T01:33:57;42.28;;;24.50;;
63567;SDS011;49715;42.386;20.434;2023-02-23T01:36:25;38.00;;;25.33;;
63567;SDS011;49715;42.386;20.434;2023-02-23T01:38:54;36.10;;;23.73;;
63567;SDS011;49715;42.386;20.434;2023-02-23T01:41:22;40.67;;;25.13;;
63567;SDS011;49715;42.386;20.434;2023-02-23T01:43:59;35.40;;;23.83;;
63567;SDS011;49715;42.386;20.434;2023-02-23T01:46:32;34.42;;;23.45;;
63567;SDS011;49715;42.386;20.434;2023-02-23T01:49:00;39.15;;;23.52;;
63567;SDS011;49715;42.386;20.434;2023-02-23T01:51:33;36.92;;;23.00;;
63567;SDS011;49715;42.386;20.434;2023-02-23T01:54:10;32.40;;;22.73;;
63567;SDS011;49715;42.386;20.434;2023-02-23T01:56:41;34.95;;;23.58;;
63567;SDS011;49715;42.386;20.434;2023-02-23T01:59:11;36.67;;;23.58;;
63567;SDS011;49715;42.386;20.434;2023-02-23T02:01:40;34.90;;;22.42;;
63567;SDS011;49715;42.386;20.434;2023-02-23T02:04:08;36.72;;;22.02;;
63567;SDS011;49715;42.386;20.434;2023-02-23T02:06:42;35.70;;;21.80;;
63567;SDS011;49715;42.386;20.434;2023-02-23T02:09:14;38.25;;;22.08;;
63567;SDS011;49715;42.386;20.434;2023-02-23T02:11:42;35.22;;;22.88;;
63567;SDS011;49715;42.386;20.434;2023-02-23T02:14:18;32.55;;;21.77;;
63567;SDS011;49715;42.386;20.434;2023-02-23T02:31:15;32.20;;;21.73;;
63567;SDS011;49715;42.386;20.434;2023-02-23T02:44:10;28.42;;;18.92;;
63567;SDS011;49715;42.386;20.434;2023-02-23T02:46:46;29.38;;;17.77;;
63567;SDS011;49715;42.386;20.434;2023-02-23T02:49:24;24.08;;;17.67;;
63567;SDS011;49715;42.386;20.434;2023-02-23T02:52:07;28.55;;;18.23;;
63567;SDS011;49715;42.386;20.434;2023-02-23T02:54:51;28.00;;;18.27;;
63567;SDS011;49715;42.386;20.434;2023-02-23T02:57:23;28.70;;;17.73;;
63567;SDS011;49715;42.386;20.434;2023-02-23T02:59:52;30.00;;;19.80;;
63567;SDS011;49715;42.386;20.434;2023-02-23T03:02:38;30.50;;;20.35;;
63567;SDS011;49715;42.386;20.434;2023-02-23T03:05:29;37.60;;;21.70;;
63567;SDS011;49715;42.386;20.434;2023-02-23T03:08:24;34.45;;;21.00;;
63567;SDS011;49715;42.386;20.434;2023-02-23T03:11:18;45.97;;;25.73;;
63567;SDS011;49715;42.386;20.434;2023-02-23T03:31:46;38.17;;;25.58;;
63567;SDS011;49715;42.386;20.434;2023-02-23T03:34:41;45.17;;;25.63;;
63567;SDS011;49715;42.386;20.434;2023-02-23T03:37:44;43.17;;;24.92;;
63567;SDS011;49715;42.386;20.434;2023-02-23T03:40:37;52.33;;;31.23;;
63567;SDS011;49715;42.386;20.434;2023-02-23T03:44:08;50.08;;;29.75;;
63567;SDS011;49715;42.386;20.434;2023-02-23T03:46:44;39.55;;;25.20;;
63567;SDS011;49715;42.386;20.434;2023-02-23T03:49:33;42.92;;;26.08;;
63567;SDS011;49715;42.386;20.434;2023-02-23T03:52:25;41.72;;;26.48;;
63567;SDS011;49715;42.386;20.434;2023-02-23T03:55:16;46.63;;;25.38;;
63567;SDS011;49715;42.386;20.434;2023-02-23T03:58:05;38.75;;;22.67;;
63567;SDS011;49715;42.386;20.434;2023-02-23T04:00:55;35.97;;;20.67;;
63567;SDS011;49715;42.386;20.434;2023-02-23T04:03:45;34.22;;;21.20;;
63567;SDS011;49715;42.386;20.434;2023-02-23T04:06:39;35.75;;;20.45;;
63567;SDS011;49715;42.386;20.434;2023-02-23T04:09:27;46.03;;;22.95;;
63567;SDS011;49715;42.386;20.434;2023-02-23T04:12:18;40.83;;;23.27;;
63567;SDS011;49715;42.386;20.434;2023-02-23T04:18:26;42.33;;;22.75;;
63567;SDS011;49715;42.386;20.434;2023-02-23T04:20:55;46.60;;;24.10;;
63567;SDS011;49715;42.386;20.434;2023-02-23T04:25:49;45.30;;;23.98;;
63567;SDS011;49715;42.386;20.434;2023-02-23T04:28:20;42.63;;;22.52;;
63567;SDS011;49715;42.386;20.434;2023-02-23T04:30:47;45.92;;;23.83;;
63567;SDS011;49715;42.386;20.434;2023-02-23T04:33:14;41.60;;;23.15;;
63567;SDS011;49715;42.386;20.434;2023-02-23T04:35:40;36.10;;;20.55;;
63567;SDS011;49715;42.386;20.434;2023-02-23T04:38:07;33.88;;;20.75;;
63567;SDS011;49715;42.386;20.434;2023-02-23T04:40:34;36.57;;;21.10;;
63567;SDS011;49715;42.386;20.434;2023-02-23T04:43:00;33.30;;;19.50;;
63567;SDS011;49715;42.386;20.434;2023-02-23T04:45:27;30.73;;;20.10;;
63567;SDS011;49715;42.386;20.434;2023-02-23T04:47:54;34.70;;;19.60;;
63567;SDS011;49715;42.386;20.434;2023-02-23T04:50:21;41.50;;;25.05;;
63567;SDS011;49715;42.386;20.434;2023-02-23T04:52:47;33.57;;;19.80;;
63567;SDS011;49715;42.386;20.434;2023-02-23T04:55:15;30.98;;;19.77;;
63567;SDS011;49715;42.386;20.434;2023-02-23T04:57:44;34.58;;;21.98;;
63567;SDS011;49715;42.386;20.434;2023-02-23T05:02:38;42.97;;;23.48;;
63567;SDS011;49715;42.386;20.434;2023-02-23T05:05:05;43.60;;;24.33;;
63567;SDS011;49715;42.386;20.434;2023-02-23T05:07:34;35.05;;;21.33;;
63567;SDS011;49715;42.386;20.434;2023-02-23T05:10:02;42.30;;;24.88;;
63567;SDS011;49715;42.386;20.434;2023-02-23T05:12:30;48.03;;;29.27;;
63567;SDS011;49715;42.386;20.434;2023-02-23T05:14:57;46.92;;;27.63;;
63567;SDS011;49715;42.386;20.434;2023-02-23T05:17:23;50.83;;;27.27;;
63567;SDS011;49715;42.386;20.434;2023-02-23T05:19:50;44.17;;;25.27;;
63567;SDS011;49715;42.386;20.434;2023-02-23T05:22:17;37.05;;;22.15;;
63567;SDS011;49715;42.386;20.434;2023-02-23T05:24:43;40.35;;;22.20;;
63567;SDS011;49715;42.386;20.434;2023-02-23T05:27:10;33.95;;;21.08;;
63567;SDS011;49715;42.386;20.434;2023-02-23T05:29:38;34.63;;;20.30;;
63567;SDS011;49715;42.386;20.434;2023-02-23T05:32:06;39.40;;;21.00;;
63567;SDS011;49715;42.386;20.434;2023-02-23T05:34:32;33.72;;;19.58;;
63567;SDS011;49715;42.386;20.434;2023-02-23T05:36:59;34.92;;;20.73;;
63567;SDS011;49715;42.386;20.434;2023-02-23T05:39:25;34.47;;;20.13;;
63567;SDS011;49715;42.386;20.434;2023-02-23T05:41:52;37.37;;;21.93;;
63567;SDS011;49715;42.386;20.434;2023-02-23T05:44:18;36.20;;;20.50;;
63567;SDS011;49715;42.386;20.434;2023-02-23T05:46:45;37.53;;;21.27;;
63567;SDS011;49715;42.386;20.434;2023-02-23T05:49:12;40.47;;;21.13;;
63567;SDS011;49715;42.386;20.434;2023-02-23T05:51:39;40.80;;;22.48;;
63567;SDS011;49715;42.386;20.434;2023-02-23T05:54:05;41.00;;;22.63;;
63567;SDS011;49715;42.386;20.434;2023-02-23T05:56:32;46.03;;;23.85;;
63567;SDS011;49715;42.386;20.434;2023-02-23T05:58:59;37.00;;;21.30;;
63567;SDS011;49715;42.386;20.434;2023-02-23T06:01:27;43.95;;;21.25;;
63567;SDS011;49715;42.386;20.434;2023-02-23T06:03:53;35.30;;;21.67;;
63567;SDS011;49715;42.386;20.434;2023-02-23T06:06:20;45.15;;;22.10;;
63567;SDS011;49715;42.386;20.434;2023-02-23T06:08:48;41.17;;;21.77;;
63567;SDS011;49715;42.386;20.434;2023-02-23T06:11:15;41.83;;;23.80;;
63567;SDS011;49715;42.386;20.434;2023-02-23T06:13:42;40.13;;;23.73;;
63567;SDS011;49715;42.386;20.434;2023-02-23T06:16:08;42.90;;;23.10;;
63567;SDS011;49715;42.386;20.434;2023-02-23T06:18:35;45.15;;;26.70;;
63567;SDS011;49715;42.386;20.434;2023-02-23T06:21:01;52.20;;;28.08;;
63567;SDS011;49715;42.386;20.434;2023-02-23T06:23:29;47.17;;;27.17;;
63567;SDS011;49715;42.386;20.434;2023-02-23T06:25:56;44.90;;;27.27;;
63567;SDS011;49715;42.386;20.434;2023-02-23T06:28:24;42.75;;;26.65;;
63567;SDS011;49715;42.386;20.434;2023-02-23T06:30:52;48.03;;;28.08;;
63567;SDS011;49715;42.386;20.434;2023-02-23T06:38:12;43.45;;;26.38;;
63567;SDS011;49715;42.386;20.434;2023-02-23T06:40:40;51.53;;;27.88;;
63567;SDS011;49715;42.386;20.434;2023-02-23T06:43:08;49.45;;;28.27;;
63567;SDS011;49715;42.386;20.434;2023-02-23T06:45:36;56.65;;;32.88;;
63567;SDS011;49715;42.386;20.434;2023-02-23T06:48:02;59.00;;;33.50;;
63567;SDS011;49715;42.386;20.434;2023-02-23T06:50:29;56.60;;;33.88;;
63567;SDS011;49715;42.386;20.434;2023-02-23T06:52:56;57.03;;;31.30;;
63567;SDS011;49715;42.386;20.434;2023-02-23T06:55:22;55.78;;;31.15;;
63567;SDS011;49715;42.386;20.434;2023-02-23T06:57:49;56.60;;;29.67;;
63567;SDS011;49715;42.386;20.434;2023-02-23T07:00:19;53.55;;;30.05;;
63567;SDS011;49715;42.386;20.434;2023-02-23T07:02:56;49.40;;;29.42;;
63567;SDS011;49715;42.386;20.434;2023-02-23T07:05:27;57.88;;;33.40;;
63567;SDS011;49715;42.386;20.434;2023-02-23T07:07:55;63.28;;;34.30;;
63567;SDS011;49715;42.386;20.434;2023-02-23T07:10:22;53.97;;;33.97;;
63567;SDS011;49715;42.386;20.434;2023-02-23T07:13:15;59.63;;;33.22;;
63567;SDS011;49715;42.386;20.434;2023-02-23T07:15:42;65.65;;;34.65;;
63567;SDS011;49715;42.386;20.434;2023-02-23T07:18:08;55.93;;;33.73;;
63567;SDS011;49715;42.386;20.434;2023-02-23T07:20:35;58.17;;;32.80;;
63567;SDS011;49715;42.386;20.434;2023-02-23T07:23:03;68.90;;;34.58;;
63567;SDS011;49715;42.386;20.434;2023-02-23T07:25:30;60.55;;;37.42;;
63567;SDS011;49715;42.386;20.434;2023-02-23T07:27:57;63.38;;;38.35;;
63567;SDS011;49715;42.386;20.434;2023-02-23T07:30:25;69.18;;;39.35;;
63567;SDS011;49715;42.386;20.434;2023-02-23T07:32:55;88.95;;;40.45;;
63567;SDS011;49715;42.386;20.434;2023-02-23T07:35:24;64.38;;;35.35;;
63567;SDS011;49715;42.386;20.434;2023-02-23T07:37:51;65.88;;;36.95;;
63567;SDS011;49715;42.386;20.434;2023-02-23T07:40:22;72.07;;;36.97;;
63567;SDS011;49715;42.386;20.434;2023-02-23T07:42:51;64.28;;;36.58;;
63567;SDS011;49715;42.386;20.434;2023-02-23T07:45:23;56.50;;;36.35;;
63567;SDS011;49715;42.386;20.434;2023-02-23T07:47:50;65.35;;;36.47;;
63567;SDS011;49715;42.386;20.434;2023-02-23T07:50:16;70.05;;;37.35;;
63567;SDS011;49715;42.386;20.434;2023-02-23T07:52:49;58.33;;;33.88;;
63567;SDS011;49715;42.386;20.434;2023-02-23T07:55:16;62.58;;;33.78;;
63567;SDS011;49715;42.386;20.434;2023-02-23T07:57:43;56.70;;;33.35;;
63567;SDS011;49715;42.386;20.434;2023-02-23T08:00:10;52.65;;;32.58;;
63567;SDS011;49715;42.386;20.434;2023-02-23T08:02:43;56.00;;;32.47;;
63567;SDS011;49715;42.386;20.434;2023-02-23T08:05:11;49.42;;;29.25;;
63567;SDS011;49715;42.386;20.434;2023-02-23T08:07:37;44.85;;;27.95;;
63567;SDS011;49715;42.386;20.434;2023-02-23T08:46:26;32.47;;;22.25;;
63567;SDS011;49715;42.386;20.434;2023-02-23T08:49:26;38.65;;;23.63;;
63567;SDS011;49715;42.386;20.434;2023-02-23T08:51:56;39.67;;;23.48;;
63567;SDS011;49715;42.386;20.434;2023-02-23T08:54:25;32.00;;;21.60;;
63567;SDS011;49715;42.386;20.434;2023-02-23T08:56:54;28.50;;;21.02;;
63567;SDS011;49715;42.386;20.434;2023-02-23T08:59:25;34.15;;;22.33;;
63567;SDS011;49715;42.386;20.434;2023-02-23T09:01:59;34.08;;;23.08;;
63567;SDS011;49715;42.386;20.434;2023-02-23T09:04:32;31.00;;;22.98;;
63567;SDS011;49715;42.386;20.434;2023-02-23T09:07:04;31.63;;;21.58;;
63567;SDS011;49715;42.386;20.434;2023-02-23T09:09:33;33.05;;;20.77;;
63567;SDS011;49715;42.386;20.434;2023-02-23T09:12:04;31.67;;;21.70;;
63567;SDS011;49715;42.386;20.434;2023-02-23T09:14:34;30.02;;;20.73;;
63567;SDS011;49715;42.386;20.434;2023-02-23T09:17:28;28.23;;;21.02;;
63567;SDS011;49715;42.386;20.434;2023-02-23T09:19:57;34.40;;;23.00;;
63567;SDS011;49715;42.386;20.434;2023-02-23T09:22:30;28.10;;;20.77;;
63567;SDS011;49715;42.386;20.434;2023-02-23T09:25:24;29.77;;;21.02;;
63567;SDS011;49715;42.386;20.434;2023-02-23T09:27:58;29.27;;;20.92;;
63567;SDS011;49715;42.386;20.434;2023-02-23T09:30:26;26.58;;;20.10;;
63567;SDS011;49715;42.386;20.434;2023-02-23T09:32:59;26.77;;;19.25;;
63567;SDS011;49715;42.386;20.434;2023-02-23T09:35:29;25.50;;;19.27;;
63567;SDS011;49715;42.386;20.434;2023-02-23T09:37:59;24.50;;;18.77;;
63567;SDS011;49715;42.386;20.434;2023-02-23T09:40:34;30.60;;;20.75;;
63567;SDS011;49715;42.386;20.434;2023-02-23T09:43:29;28.90;;;19.83;;
63567;SDS011;49715;42.386;20.434;2023-02-23T09:48:59;26.77;;;18.58;;
63567;SDS011;49715;42.386;20.434;2023-02-23T09:51:34;27.92;;;19.02;;
63567;SDS011;49715;42.386;20.434;2023-02-23T09:54:11;26.77;;;18.83;;
63567;SDS011;49715;42.386;20.434;2023-02-23T09:56:47;25.33;;;17.58;;
63567;SDS011;49715;42.386;20.434;2023-02-23T09:59:19;28.38;;;17.58;;
63567;SDS011;49715;42.386;20.434;2023-02-23T10:16:54;20.25;;;14.13;;
63567;SDS011;49715;42.386;20.434;2023-02-23T10:22:40;22.48;;;17.13;;
63567;SDS011;49715;42.386;20.434;2023-02-23T10:25:26;17.80;;;12.52;;
63567;SDS011;49715;42.386;20.434;2023-02-23T10:27:58;18.35;;;13.23;;
63567;SDS011;49715;42.386;20.434;2023-02-23T10:30:30;15.52;;;11.50;;
63567;SDS011;49715;42.386;20.434;2023-02-23T10:35:49;24.75;;;18.38;;
63567;SDS011;49715;42.386;20.434;2023-02-23T10:38:29;19.33;;;13.75;;
63567;SDS011;49715;42.386;20.434;2023-02-23T10:41:32;15.77;;;12.82;;
63567;SDS011;49715;42.386;20.434;2023-02-23T10:44:04;15.98;;;12.32;;
63567;SDS011;49715;42.386;20.434;2023-02-23T10:46:41;22.13;;;12.68;;
63567;SDS011;49715;42.386;20.434;2023-02-23T10:49:10;12.63;;;10.80;;
63567;SDS011;49715;42.386;20.434;2023-02-23T10:51:46;15.43;;;9.80;;
63567;SDS011;49715;42.386;20.434;2023-02-23T10:57:34;16.02;;;11.88;;
63567;SDS011;49715;42.386;20.434;2023-02-23T11:02:43;19.95;;;13.23;;
63567;SDS011;49715;42.386;20.434;2023-02-23T11:05:35;17.80;;;12.63;;
63567;SDS011;49715;42.386;20.434;2023-02-23T11:13:48;19.67;;;12.88;;
63567;SDS011;49715;42.386;20.434;2023-02-23T11:16:19;18.80;;;12.97;;
63567;SDS011;49715;42.386;20.434;2023-02-23T11:18:55;18.10;;;13.07;;
63567;SDS011;49715;42.386;20.434;2023-02-23T11:21:32;23.67;;;13.35;;
63567;SDS011;49715;42.386;20.434;2023-02-23T11:26:45;19.23;;;12.40;;
63567;SDS011;49715;42.386;20.434;2023-02-23T11:31:47;11.77;;;9.57;;
63567;SDS011;49715;42.386;20.434;2023-02-23T11:34:26;12.27;;;9.63;;
63567;SDS011;49715;42.386;20.434;2023-02-23T11:36:57;9.55;;;7.55;;
63567;SDS011;49715;42.386;20.434;2023-02-23T11:39:30;9.77;;;7.75;;
63567;SDS011;49715;42.386;20.434;2023-02-23T11:44:40;12.88;;;7.80;;
63567;SDS011;49715;42.386;20.434;2023-02-23T11:47:17;13.35;;;8.32;;
63567;SDS011;49715;42.386;20.434;2023-02-23T11:49:47;9.00;;;7.50;;
63567;SDS011;49715;42.386;20.434;2023-02-23T11:52:17;15.27;;;8.32;;
63567;SDS011;49715;42.386;20.434;2023-02-23T11:54:58;11.75;;;8.57;;
63567;SDS011;49715;42.386;20.434;2023-02-23T11:57:33;15.63;;;9.00;;
63567;SDS011;49715;42.386;20.434;2023-02-23T12:00:33;13.60;;;9.23;;
63567;SDS011;49715;42.386;20.434;2023-02-23T12:05:28;11.32;;;8.00;;
63567;SDS011;49715;42.386;20.434;2023-02-23T12:08:04;17.05;;;9.35;;
63567;SDS011;49715;42.386;20.434;2023-02-23T12:10:37;16.10;;;8.70;;
63567;SDS011;49715;42.386;20.434;2023-02-23T12:15:59;12.15;;;8.43;;
63567;SDS011;49715;42.386;20.434;2023-02-23T12:18:42;16.15;;;9.57;;
63567;SDS011;49715;42.386;20.434;2023-02-23T12:24:33;16.80;;;10.25;;
63567;SDS011;49715;42.386;20.434;2023-02-23T12:32:55;16.23;;;10.70;;
63567;SDS011;49715;42.386;20.434;2023-02-23T12:35:30;19.65;;;10.50;;
63567;SDS011;49715;42.386;20.434;2023-02-23T12:41:09;15.30;;;9.25;;
63567;SDS011;49715;42.386;20.434;2023-02-23T12:43:59;17.77;;;11.82;;
63567;SDS011;49715;42.386;20.434;2023-02-23T12:46:42;15.23;;;10.57;;
63567;SDS011;49715;42.386;20.434;2023-02-23T12:49:24;12.35;;;10.02;;
63567;SDS011;49715;42.386;20.434;2023-02-23T12:51:59;18.38;;;10.45;;
63567;SDS011;49715;42.386;20.434;2023-02-23T12:54:34;15.52;;;10.45;;
63567;SDS011;49715;42.386;20.434;2023-02-23T12:59:54;17.40;;;10.45;;
63567;SDS011;49715;42.386;20.434;2023-02-23T13:09:08;14.23;;;9.60;;
63567;SDS011;49715;42.386;20.434;2023-02-23T13:11:53;14.90;;;10.43;;
63567;SDS011;49715;42.386;20.434;2023-02-23T13:17:37;18.65;;;9.98;;
63567;SDS011;49715;42.386;20.434;2023-02-23T13:22:48;17.27;;;10.43;;
63567;SDS011;49715;42.386;20.434;2023-02-23T13:27:56;13.38;;;10.88;;
63567;SDS011;49715;42.386;20.434;2023-02-23T13:30:25;17.77;;;10.60;;
63567;SDS011;49715;42.386;20.434;2023-02-23T13:32:58;14.77;;;11.48;;
63567;SDS011;49715;42.386;20.434;2023-02-23T13:35:41;17.20;;;10.88;;
63567;SDS011;49715;42.386;20.434;2023-02-23T13:38:14;16.60;;;11.73;;
63567;SDS011;49715;42.386;20.434;2023-02-23T13:40:51;13.93;;;10.80;;
63567;SDS011;49715;42.386;20.434;2023-02-23T13:43:30;14.95;;;10.05;;
63567;SDS011;49715;42.386;20.434;2023-02-23T13:49:12;16.50;;;9.65;;
63567;SDS011;49715;42.386;20.434;2023-02-23T13:51:58;13.52;;;7.95;;
63567;SDS011;49715;42.386;20.434;2023-02-23T13:55:01;14.70;;;9.07;;
63567;SDS011;49715;42.386;20.434;2023-02-23T13:59:56;12.00;;;8.23;;
63567;SDS011;49715;42.386;20.434;2023-02-23T14:02:36;13.32;;;7.53;;
63567;SDS011;49715;42.386;20.434;2023-02-23T14:07:51;10.93;;;7.63;;
63567;SDS011;49715;42.386;20.434;2023-02-23T14:10:22;10.10;;;7.78;;
63567;SDS011;49715;42.386;20.434;2023-02-23T14:15:49;11.40;;;8.13;;
63567;SDS011;49715;42.386;20.434;2023-02-23T14:18:33;11.93;;;8.30;;
63567;SDS011;49715;42.386;20.434;2023-02-23T14:26:14;22.23;;;11.27;;
63567;SDS011;49715;42.386;20.434;2023-02-23T14:31:56;17.40;;;12.25;;
63567;SDS011;49715;42.386;20.434;2023-02-23T14:34:50;21.00;;;13.70;;
63567;SDS011;49715;42.386;20.434;2023-02-23T14:37:26;18.35;;;13.02;;
63567;SDS011;49715;42.386;20.434;2023-02-23T14:42:52;18.95;;;13.55;;
63567;SDS011;49715;42.386;20.434;2023-02-23T14:45:35;21.90;;;14.00;;
63567;SDS011;49715;42.386;20.434;2023-02-23T14:48:10;17.83;;;13.70;;
63567;SDS011;49715;42.386;20.434;2023-02-23T14:50:38;17.15;;;12.95;;
63567;SDS011;49715;42.386;20.434;2023-02-23T14:53:52;15.75;;;9.77;;
63567;SDS011;49715;42.386;20.434;2023-02-23T14:56:23;13.73;;;8.82;;
63567;SDS011;49715;42.386;20.434;2023-02-23T14:58:52;17.60;;;10.00;;
63567;SDS011;49715;42.386;20.434;2023-02-23T15:01:34;14.35;;;9.35;;
63567;SDS011;49715;42.386;20.434;2023-02-23T15:04:30;16.27;;;9.05;;
63567;SDS011;49715;42.386;20.434;2023-02-23T15:06:58;18.15;;;9.05;;
63567;SDS011;49715;42.386;20.434;2023-02-23T15:09:35;12.70;;;8.95;;
63567;SDS011;49715;42.386;20.434;2023-02-23T15:12:14;20.85;;;9.07;;
63567;SDS011;49715;42.386;20.434;2023-02-23T15:14:47;17.15;;;9.32;;
63567;SDS011;49715;42.386;20.434;2023-02-23T15:17:16;18.27;;;8.48;;
63567;SDS011;49715;42.386;20.434;2023-02-23T15:22:34;17.73;;;8.95;;
63567;SDS011;49715;42.386;20.434;2023-02-23T15:25:20;19.42;;;9.75;;
63567;SDS011;49715;42.386;20.434;2023-02-23T15:30:49;26.25;;;8.95;;
63567;SDS011;49715;42.386;20.434;2023-02-23T15:33:19;20.77;;;9.55;;
63567;SDS011;49715;42.386;20.434;2023-02-23T15:38:45;10.40;;;7.78;;
63567;SDS011;49715;42.386;20.434;2023-02-23T15:46:53;21.75;;;9.10;;
63567;SDS011;49715;42.386;20.434;2023-02-23T15:49:25;25.43;;;10.33;;
63567;SDS011;49715;42.386;20.434;2023-02-23T15:52:00;22.88;;;12.60;;
63567;SDS011;49715;42.386;20.434;2023-02-23T15:57:13;20.48;;;12.88;;
63567;SDS011;49715;42.386;20.434;2023-02-23T16:02:13;28.30;;;14.95;;
63567;SDS011;49715;42.386;20.434;2023-02-23T16:04:45;33.58;;;16.17;;
63567;SDS011;49715;42.386;20.434;2023-02-23T16:09:49;32.75;;;17.63;;
63567;SDS011;49715;42.386;20.434;2023-02-23T16:12:20;36.13;;;16.70;;
63567;SDS011;49715;42.386;20.434;2023-02-23T16:14:54;32.35;;;18.58;;
63567;SDS011;49715;42.386;20.434;2023-02-23T16:20:18;44.47;;;22.55;;
63567;SDS011;49715;42.386;20.434;2023-02-23T16:23:29;39.92;;;22.33;;
63567;SDS011;49715;42.386;20.434;2023-02-23T16:25:58;44.55;;;26.40;;
63567;SDS011;49715;42.386;20.434;2023-02-23T16:28:36;48.85;;;26.20;;
63567;SDS011;49715;42.386;20.434;2023-02-23T16:31:10;50.08;;;24.85;;
63567;SDS011;49715;42.386;20.434;2023-02-23T16:33:52;47.38;;;23.35;;
63567;SDS011;49715;42.386;20.434;2023-02-23T16:36:22;42.78;;;21.45;;
63567;SDS011;49715;42.386;20.434;2023-02-23T16:38:59;51.08;;;20.38;;
63567;SDS011;49715;42.386;20.434;2023-02-23T16:41:29;39.65;;;21.02;;
63567;SDS011;49715;42.386;20.434;2023-02-23T16:43:58;44.38;;;21.58;;
63567;SDS011;49715;42.386;20.434;2023-02-23T16:46:29;43.80;;;22.48;;
63567;SDS011;49715;42.386;20.434;2023-02-23T16:49:03;46.30;;;24.02;;
63567;SDS011;49715;42.386;20.434;2023-02-23T16:51:35;40.58;;;21.55;;
63567;SDS011;49715;42.386;20.434;2023-02-23T16:54:01;36.15;;;21.35;;
63567;SDS011;49715;42.386;20.434;2023-02-23T16:56:29;31.33;;;20.13;;
63567;SDS011;49715;42.386;20.434;2023-02-23T16:58:57;35.00;;;23.70;;
63567;SDS011;49715;42.386;20.434;2023-02-23T17:01:26;44.20;;;25.85;;
63567;SDS011;49715;42.386;20.434;2023-02-23T17:03:53;30.50;;;20.08;;
63567;SDS011;49715;42.386;20.434;2023-02-23T17:06:20;27.65;;;18.20;;
63567;SDS011;49715;42.386;20.434;2023-02-23T17:08:47;33.20;;;20.20;;
63567;SDS011;49715;42.386;20.434;2023-02-23T17:11:13;88.35;;;51.70;;
63567;SDS011;49715;42.386;20.434;2023-02-23T17:13:40;47.95;;;31.30;;
63567;SDS011;49715;42.386;20.434;2023-02-23T17:16:09;49.78;;;28.15;;
63567;SDS011;49715;42.386;20.434;2023-02-23T17:18:38;52.67;;;34.13;;
63567;SDS011;49715;42.386;20.434;2023-02-23T17:23:58;46.47;;;29.60;;
63567;SDS011;49715;42.386;20.434;2023-02-23T17:26:27;29.20;;;20.58;;
63567;SDS011;49715;42.386;20.434;2023-02-23T17:28:55;30.75;;;17.45;;
63567;SDS011;49715;42.386;20.434;2023-02-23T17:31:40;36.30;;;21.88;;
63567;SDS011;49715;42.386;20.434;2023-02-23T17:34:07;35.38;;;24.48;;
63567;SDS011;49715;42.386;20.434;2023-02-23T17:36:33;36.80;;;21.58;;
63567;SDS011;49715;42.386;20.434;2023-02-23T17:39:00;34.38;;;20.48;;
63567;SDS011;49715;42.386;20.434;2023-02-23T17:41:27;39.40;;;28.65;;
63567;SDS011;49715;42.386;20.434;2023-02-23T17:43:54;42.65;;;27.13;;
63567;SDS011;49715;42.386;20.434;2023-02-23T17:46:22;43.28;;;26.73;;
63567;SDS011;49715;42.386;20.434;2023-02-23T17:48:49;36.45;;;22.73;;
63567;SDS011;49715;42.386;20.434;2023-02-23T17:51:15;30.40;;;19.27;;
63567;SDS011;49715;42.386;20.434;2023-02-23T17:53:44;54.90;;;28.77;;
63567;SDS011;49715;42.386;20.434;2023-02-23T17:56:10;72.60;;;35.65;;
63567;SDS011;49715;42.386;20.434;2023-02-23T17:58:38;86.63;;;50.03;;
63567;SDS011;49715;42.386;20.434;2023-02-23T18:01:07;107.80;;;64.82;;
63567;SDS011;49715;42.386;20.434;2023-02-23T18:03:35;138.98;;;80.75;;
63567;SDS011;49715;42.386;20.434;2023-02-23T18:06:03;127.50;;;75.93;;
63567;SDS011;49715;42.386;20.434;2023-02-23T18:08:31;127.28;;;73.65;;
63567;SDS011;49715;42.386;20.434;2023-02-23T18:10:58;141.73;;;80.53;;
63567;SDS011;49715;42.386;20.434;2023-02-23T18:13:25;82.82;;;50.17;;
63567;SDS011;49715;42.386;20.434;2023-02-23T18:15:54;32.25;;;22.92;;
63567;SDS011;49715;42.386;20.434;2023-02-23T18:18:33;47.05;;;29.30;;
63567;SDS011;49715;42.386;20.434;2023-02-23T18:21:01;108.05;;;60.85;;
63567;SDS011;49715;42.386;20.434;2023-02-23T18:23:28;74.50;;;43.83;;
63567;SDS011;49715;42.386;20.434;2023-02-23T18:26:31;39.70;;;22.25;;
63567;SDS011;49715;42.386;20.434;2023-02-23T18:28:51;37.58;;;24.17;;
63567;SDS011;49715;42.386;20.434;2023-02-23T18:31:24;25.23;;;17.77;;